Time;durP1;ratioP1;P1;durP2;ratioP2;P2;SDS_P1;SDS_P2;PMS_P1;PMS_P2;Temp;Humidity;BMP_temperature;BMP_pressure;BME280_temperature;BME280_humidity;BME280_pressure;Samples;Min_cycle;Max_cycle;Signal;HPM_P1;HPM_P2
2022/06/05 00:00:06;;;;;;;2.40;2.30;;;;;;;;;;4947923;28;20218;-58
2022/06/05 00:03:08;;;;;;;2.40;2.30;;;;;;;;;;4944136;28;20209;-58
2022/06/05 00:06:03;;;;;;;2.40;2.30;;;;;;;;;;4943806;28;20674;-58
2022/06/05 00:09:02;;;;;;;2.47;2.37;;;;;;;;;;4939739;29;20212;-57
2022/06/05 00:11:58;;;;;;;2.20;2.10;;;;;;;;;;4946462;28;20608;-58
2022/06/05 00:14:46;;;;;;;2.40;2.30;;;;;;;;;;4943431;28;20227;-57
2022/06/05 00:17:33;;;;;;;2.37;2.27;;;;;;;;;;4940638;29;20223;-57
2022/06/05 00:20:20;;;;;;;2.40;2.30;;;;;;;;;;4940656;29;20223;-57
2022/06/05 00:23:07;;;;;;;2.40;2.30;;;;;;;;;;4943131;29;20211;-57
2022/06/05 00:25:59;;;;;;;2.40;2.30;;;;;;;;;;4946848;28;20374;-57
2022/06/05 00:28:57;;;;;;;2.40;2.30;;;;;;;;;;4940966;28;20204;-57
2022/06/05 00:31:53;;;;;;;2.40;2.30;;;;;;;;;;4946636;28;20567;-57
2022/06/05 00:34:42;;;;;;;2.50;2.30;;;;;;;;;;4942049;28;20212;-58
2022/06/05 00:37:39;;;;;;;2.20;2.10;;;;;;;;;;4945532;28;20231;-57
2022/06/05 00:40:33;;;;;;;2.47;2.37;;;;;;;;;;4943716;28;20532;-57
2022/06/05 00:43:24;;;;;;;2.40;2.30;;;;;;;;;;4936641;28;20215;-57
2022/06/05 00:46:13;;;;;;;2.43;2.33;;;;;;;;;;4941054;29;20195;-57
2022/06/05 00:49:01;;;;;;;2.30;2.20;;;;;;;;;;4940200;29;20200;-57
2022/06/05 00:51:48;;;;;;;2.47;2.37;;;;;;;;;;4939263;29;20207;-57
2022/06/05 00:54:35;;;;;;;2.40;2.30;;;;;;;;;;4941800;29;20214;-57
2022/06/05 00:57:23;;;;;;;2.53;2.33;;;;;;;;;;4941015;28;20236;-57
2022/06/05 01:00:15;;;;;;;2.30;2.20;;;;;;;;;;4941553;28;20665;-58
2022/06/05 01:03:08;;;;;;;2.37;2.27;;;;;;;;;;4946808;28;20572;-62
2022/06/05 01:05:56;;;;;;;2.50;2.40;;;;;;;;;;4940680;28;20223;-61
2022/06/05 01:08:43;;;;;;;2.77;2.67;;;;;;;;;;4940804;28;20212;-62
2022/06/05 01:11:38;;;;;;;2.60;2.40;;;;;;;;;;4941478;28;20215;-61
2022/06/05 01:14:34;;;;;;;3.20;3.00;;;;;;;;;;4943892;29;20226;-61
2022/06/05 01:17:29;;;;;;;2.93;2.80;;;;;;;;;;4940829;28;20763;-62
2022/06/05 01:20:30;;;;;;;2.83;2.73;;;;;;;;;;4945623;28;20218;-61
2022/06/05 01:23:34;;;;;;;2.73;2.63;;;;;;;;;;4938568;28;20556;-61
2022/06/05 01:26:28;;;;;;;3.03;2.93;;;;;;;;;;4944531;28;20214;-61
2022/06/05 01:29:19;;;;;;;3.27;3.00;;;;;;;;;;4941654;29;20211;-61
2022/06/05 01:32:10;;;;;;;3.43;3.23;;;;;;;;;;4946446;28;20208;-61
2022/06/05 01:35:05;;;;;;;3.40;3.20;;;;;;;;;;4944233;29;20206;-61
2022/06/05 01:37:58;;;;;;;3.40;3.20;;;;;;;;;;4946349;29;20240;-61
2022/06/05 01:40:50;;;;;;;3.27;3.07;;;;;;;;;;4936933;29;20918;-62
2022/06/05 01:43:43;;;;;;;3.30;3.10;;;;;;;;;;4940222;28;20293;-61
2022/06/05 01:46:34;;;;;;;3.50;3.30;;;;;;;;;;4946856;29;20214;-62
2022/06/05 01:49:26;;;;;;;3.50;3.30;;;;;;;;;;4946050;29;20760;-62
2022/06/05 01:52:18;;;;;;;3.13;2.93;;;;;;;;;;4943009;28;20601;-61
2022/06/05 01:55:10;;;;;;;3.40;3.20;;;;;;;;;;4943187;28;20211;-61
2022/06/05 01:58:00;;;;;;;3.50;3.30;;;;;;;;;;4942150;28;20231;-61
2022/06/05 02:00:52;;;;;;;3.57;3.37;;;;;;;;;;4945623;28;20231;-61
2022/06/05 02:03:44;;;;;;;3.17;3.00;;;;;;;;;;4943335;28;20218;-61
2022/06/05 02:06:37;;;;;;;3.10;2.90;;;;;;;;;;4940951;29;20216;-61
2022/06/05 02:09:30;;;;;;;3.00;2.90;;;;;;;;;;4937260;28;20208;-61
2022/06/05 02:12:17;;;;;;;3.00;2.80;;;;;;;;;;4943180;29;20315;-61
2022/06/05 02:15:05;;;;;;;3.03;2.90;;;;;;;;;;4940830;29;20214;-61
2022/06/05 02:17:54;;;;;;;2.93;2.83;;;;;;;;;;4941426;28;20228;-61
2022/06/05 02:20:42;;;;;;;3.37;3.17;;;;;;;;;;4942769;28;20199;-61
2022/06/05 02:23:33;;;;;;;3.20;3.10;;;;;;;;;;4941881;28;20206;-61
2022/06/05 02:26:20;;;;;;;3.50;3.30;;;;;;;;;;4943876;28;20947;-61
2022/06/05 02:29:13;;;;;;;3.30;3.10;;;;;;;;;;4939055;28;20772;-61
2022/06/05 02:32:10;;;;;;;2.73;2.63;;;;;;;;;;4941022;28;20679;-61
2022/06/05 02:35:15;;;;;;;2.90;2.80;;;;;;;;;;4945582;29;20211;-61
2022/06/05 02:38:16;;;;;;;2.83;2.73;;;;;;;;;;4940220;28;20239;-61
2022/06/05 02:41:08;;;;;;;3.40;3.30;;;;;;;;;;4945520;28;20214;-61
2022/06/05 02:47:17;;;;;;;2.83;2.73;;;;;;;;;;4942910;29;20220;-62
2022/06/05 02:50:11;;;;;;;2.50;2.40;;;;;;;;;;4945515;28;20204;-60
2022/06/05 02:53:01;;;;;;;2.83;2.73;;;;;;;;;;4954740;28;20214;-61
2022/06/05 02:55:49;;;;;;;2.70;2.60;;;;;;;;;;4941565;29;20668;-61
2022/06/05 02:58:36;;;;;;;3.53;3.33;;;;;;;;;;4945429;29;20767;-61
2022/06/05 03:04:33;;;;;;;2.83;2.73;;;;;;;;;;4944978;28;20220;-61
2022/06/05 03:07:22;;;;;;;3.27;3.07;;;;;;;;;;4940144;29;20199;-62
2022/06/05 03:10:10;;;;;;;2.80;2.70;;;;;;;;;;4945392;28;20790;-61
2022/06/05 03:12:57;;;;;;;2.80;2.70;;;;;;;;;;4946934;28;20247;-61
2022/06/05 03:15:44;;;;;;;2.70;2.60;;;;;;;;;;4946033;29;20204;-62
2022/06/05 03:18:31;;;;;;;2.97;2.77;;;;;;;;;;4945088;28;20235;-61
2022/06/05 03:21:18;;;;;;;2.50;2.40;;;;;;;;;;4940023;29;20230;-61
2022/06/05 03:24:08;;;;;;;2.50;2.40;;;;;;;;;;4945222;29;20208;-62
2022/06/05 03:26:55;;;;;;;2.53;2.43;;;;;;;;;;4950576;28;20219;-61
2022/06/05 03:29:42;;;;;;;2.73;2.63;;;;;;;;;;4944593;28;20218;-61
2022/06/05 03:32:30;;;;;;;2.50;2.40;;;;;;;;;;4940632;28;20262;-61
2022/06/05 03:35:17;;;;;;;2.70;2.60;;;;;;;;;;4942565;28;20698;-61
2022/06/05 03:38:05;;;;;;;2.37;2.27;;;;;;;;;;4944553;28;20236;-61
2022/06/05 03:40:53;;;;;;;2.80;2.70;;;;;;;;;;4946667;28;20227;-61
2022/06/05 03:43:41;;;;;;;2.50;2.40;;;;;;;;;;4943685;29;20211;-61
2022/06/05 03:46:28;;;;;;;2.80;2.70;;;;;;;;;;4936558;29;20215;-61
2022/06/05 03:49:15;;;;;;;2.50;2.40;;;;;;;;;;4947357;28;20223;-61
2022/06/05 03:52:03;;;;;;;2.60;2.50;;;;;;;;;;4944870;28;20220;-61
2022/06/05 03:54:50;;;;;;;2.47;2.37;;;;;;;;;;4944199;28;20212;-62
2022/06/05 03:57:38;;;;;;;2.70;2.60;;;;;;;;;;4947217;28;20751;-61
2022/06/05 04:00:26;;;;;;;2.43;2.33;;;;;;;;;;4940991;29;20232;-61
2022/06/05 04:03:13;;;;;;;2.40;2.30;;;;;;;;;;4947466;28;20219;-62
2022/06/05 04:06:00;;;;;;;2.57;2.47;;;;;;;;;;4938534;29;20204;-61
2022/06/05 04:08:48;;;;;;;2.63;2.53;;;;;;;;;;4947615;28;20243;-61
2022/06/05 04:11:38;;;;;;;2.30;2.20;;;;;;;;;;4940700;29;20209;-61
2022/06/05 04:14:27;;;;;;;2.40;2.30;;;;;;;;;;4940869;28;20212;-61
2022/06/05 04:17:14;;;;;;;2.57;2.47;;;;;;;;;;4942559;29;20215;-61
2022/06/05 04:20:01;;;;;;;2.30;2.20;;;;;;;;;;4945358;28;20856;-61
2022/06/05 04:22:48;;;;;;;2.30;2.20;;;;;;;;;;4939907;29;20211;-61
2022/06/05 04:25:35;;;;;;;2.30;2.20;;;;;;;;;;4944031;29;20610;-61
2022/06/05 04:28:22;;;;;;;2.60;2.50;;;;;;;;;;4944203;29;20223;-61
2022/06/05 04:31:23;;;;;;;2.40;2.30;;;;;;;;;;4942418;28;20204;-61
2022/06/05 04:34:13;;;;;;;2.30;2.20;;;;;;;;;;4936893;28;20220;-62
2022/06/05 04:37:00;;;;;;;2.30;2.20;;;;;;;;;;4938817;29;20578;-61
2022/06/05 04:39:47;;;;;;;2.30;2.20;;;;;;;;;;4939721;28;20234;-62
2022/06/05 04:42:34;;;;;;;2.50;2.40;;;;;;;;;;4941413;29;20216;-61
2022/06/05 04:45:21;;;;;;;1.90;1.90;;;;;;;;;;4942571;28;20209;-61
2022/06/05 04:48:11;;;;;;;2.50;2.40;;;;;;;;;;4943124;28;20221;-61
2022/06/05 04:50:58;;;;;;;2.30;2.20;;;;;;;;;;4941149;28;20226;-61
2022/06/05 04:53:45;;;;;;;1.93;1.93;;;;;;;;;;4943346;28;20226;-61
2022/06/05 04:56:33;;;;;;;1.97;1.97;;;;;;;;;;4943647;28;20216;-61
2022/06/05 04:59:20;;;;;;;2.20;2.10;;;;;;;;;;4943136;28;20234;-61
2022/06/05 05:02:07;;;;;;;2.47;2.37;;;;;;;;;;4941593;29;20240;-61
2022/06/05 05:04:58;;;;;;;2.20;2.10;;;;;;;;;;4939993;28;20218;-61
2022/06/05 05:07:45;;;;;;;2.57;2.40;;;;;;;;;;4945058;28;20216;-61
2022/06/05 05:10:32;;;;;;;2.20;2.10;;;;;;;;;;4939432;29;20217;-61
2022/06/05 05:13:20;;;;;;;2.30;2.20;;;;;;;;;;4947692;28;20280;-61
2022/06/05 05:16:07;;;;;;;2.00;2.00;;;;;;;;;;4941647;28;20218;-61
2022/06/05 05:18:55;;;;;;;2.20;2.10;;;;;;;;;;4946435;28;20233;-61
2022/06/05 05:21:43;;;;;;;1.90;1.90;;;;;;;;;;4942928;28;20289;-61
2022/06/05 05:24:30;;;;;;;2.30;2.20;;;;;;;;;;4944401;28;20337;-61
2022/06/05 05:27:17;;;;;;;2.10;2.00;;;;;;;;;;4942008;28;20216;-61
2022/06/05 05:30:07;;;;;;;1.90;1.90;;;;;;;;;;4941528;28;20207;-61
2022/06/05 05:32:54;;;;;;;2.07;1.97;;;;;;;;;;4946262;28;20220;-61
2022/06/05 05:35:41;;;;;;;2.00;1.90;;;;;;;;;;4942833;28;20215;-62
2022/06/05 05:38:30;;;;;;;2.13;2.03;;;;;;;;;;4940816;29;20230;-61
2022/06/05 05:44:22;;;;;;;1.93;1.87;;;;;;;;;;4939568;29;20904;-61
2022/06/05 05:47:12;;;;;;;1.97;1.87;;;;;;;;;;4939956;28;20212;-61
2022/06/05 05:50:04;;;;;;;1.90;1.90;;;;;;;;;;4938978;29;20206;-61
2022/06/05 05:52:52;;;;;;;1.80;1.80;;;;;;;;;;4939208;29;20581;-61
2022/06/05 05:55:40;;;;;;;2.10;2.00;;;;;;;;;;4943572;28;20214;-61
2022/06/05 05:58:27;;;;;;;2.07;1.97;;;;;;;;;;4940968;28;20244;-61
2022/06/05 06:01:14;;;;;;;2.20;2.10;;;;;;;;;;4937442;29;20235;-62
2022/06/05 06:04:01;;;;;;;1.90;1.80;;;;;;;;;;4943412;28;20217;-61
2022/06/05 06:06:49;;;;;;;1.87;1.87;;;;;;;;;;4940853;29;20236;-62
2022/06/05 06:09:37;;;;;;;2.30;2.20;;;;;;;;;;4938170;29;20282;-61
2022/06/05 06:12:25;;;;;;;2.17;2.07;;;;;;;;;;4941302;28;20237;-61
2022/06/05 06:15:13;;;;;;;2.30;2.20;;;;;;;;;;4944380;28;20230;-61
2022/06/05 06:18:00;;;;;;;2.03;1.93;;;;;;;;;;4944560;28;20205;-61
2022/06/05 06:20:47;;;;;;;1.90;1.80;;;;;;;;;;4939844;28;20209;-61
2022/06/05 06:23:34;;;;;;;1.77;1.77;;;;;;;;;;4947047;29;20212;-61
2022/06/05 06:26:21;;;;;;;1.63;1.53;;;;;;;;;;4944847;29;20202;-62
2022/06/05 06:29:10;;;;;;;2.10;2.00;;;;;;;;;;4940184;29;20203;-61
2022/06/05 06:31:57;;;;;;;1.80;1.80;;;;;;;;;;4947409;29;20570;-62
2022/06/05 06:34:44;;;;;;;2.00;1.90;;;;;;;;;;4947445;28;20343;-61
2022/06/05 06:37:31;;;;;;;1.70;1.60;;;;;;;;;;4948824;28;20207;-61
2022/06/05 06:40:19;;;;;;;1.73;1.73;;;;;;;;;;4945764;28;20249;-62
2022/06/05 06:43:06;;;;;;;1.55;1.55;;;;;;;;;;4946246;28;20204;-62
2022/06/05 06:45:54;;;;;;;1.83;1.73;;;;;;;;;;4943705;28;20219;-60
2022/06/05 06:48:42;;;;;;;1.65;1.65;;;;;;;;;;4947039;28;20206;-60
2022/06/05 06:51:29;;;;;;;2.20;2.10;;;;;;;;;;4939615;28;20221;-60
2022/06/05 06:54:16;;;;;;;1.70;1.70;;;;;;;;;;4945488;28;20208;-61
2022/06/05 06:57:04;;;;;;;1.65;1.65;;;;;;;;;;4948929;28;20203;-61
2022/06/05 06:59:51;;;;;;;1.45;1.45;;;;;;;;;;4946532;28;20277;-61
2022/06/05 07:02:40;;;;;;;1.65;1.65;;;;;;;;;;4953960;28;20215;-61
2022/06/05 07:05:27;;;;;;;1.40;1.40;;;;;;;;;;4948267;28;20212;-61
2022/06/05 07:08:14;;;;;;;1.65;1.55;;;;;;;;;;4942605;28;20286;-60
2022/06/05 07:11:03;;;;;;;1.50;1.50;;;;;;;;;;4939160;28;20215;-61
2022/06/05 07:13:50;;;;;;;1.40;1.40;;;;;;;;;;4946694;29;20590;-61
2022/06/05 07:16:38;;;;;;;1.45;1.40;;;;;;;;;;4940780;28;20212;-61
2022/06/05 07:19:26;;;;;;;1.40;1.40;;;;;;;;;;4945055;28;20932;-61
2022/06/05 07:22:14;;;;;;;1.50;1.50;;;;;;;;;;4940321;29;20204;-62
2022/06/05 07:25:01;;;;;;;1.40;1.40;;;;;;;;;;4942547;29;20203;-61
2022/06/05 07:27:48;;;;;;;1.40;1.40;;;;;;;;;;4949125;28;20211;-62
2022/06/05 07:30:35;;;;;;;1.40;1.40;;;;;;;;;;4942940;29;20561;-61
2022/06/05 07:33:23;;;;;;;1.50;1.50;;;;;;;;;;4947758;28;20219;-61
2022/06/05 07:36:16;;;;;;;1.50;1.40;;;;;;;;;;4947277;28;20195;-61
2022/06/05 07:39:04;;;;;;;1.50;1.50;;;;;;;;;;4945406;28;20224;-61
2022/06/05 07:41:51;;;;;;;2.05;1.42;;;;;;;;;;4943475;29;20212;-61
2022/06/05 07:44:38;;;;;;;1.27;1.27;;;;;;;;;;4943511;29;20222;-61
2022/06/05 07:47:26;;;;;;;1.45;1.30;;;;;;;;;;4943778;29;20218;-61
2022/06/05 07:50:14;;;;;;;1.40;1.35;;;;;;;;;;4943665;28;20575;-61
2022/06/05 07:56:07;;;;;;;1.30;1.30;;;;;;;;;;4938265;29;20203;-61
2022/06/05 07:58:54;;;;;;;1.45;1.45;;;;;;;;;;4944941;29;20222;-62
2022/06/05 08:01:41;;;;;;;1.30;1.30;;;;;;;;;;4940267;29;20906;-61
2022/06/05 08:04:29;;;;;;;1.50;1.42;;;;;;;;;;4949496;28;20734;-61
2022/06/05 08:07:19;;;;;;;1.38;1.38;;;;;;;;;;4944111;28;20211;-61
2022/06/05 08:10:09;;;;;;;1.08;1.08;;;;;;;;;;4942363;29;20208;-61
2022/06/05 08:12:56;;;;;;;1.30;1.30;;;;;;;;;;4947742;28;20242;-62
2022/06/05 08:15:44;;;;;;;1.30;1.30;;;;;;;;;;4939271;28;20251;-61
2022/06/05 08:18:31;;;;;;;1.48;1.35;;;;;;;;;;4945876;29;20214;-60
2022/06/05 08:21:19;;;;;;;1.60;1.50;;;;;;;;;;4944216;29;20215;-61
2022/06/05 08:24:06;;;;;;;1.38;1.38;;;;;;;;;;4947815;29;20218;-61
2022/06/05 08:26:55;;;;;;;1.23;1.23;;;;;;;;;;4947058;29;20218;-62
2022/06/05 08:29:42;;;;;;;1.38;1.38;;;;;;;;;;4941291;29;20212;-61
2022/06/05 08:32:30;;;;;;;1.30;1.30;;;;;;;;;;4938106;28;20566;-60
2022/06/05 08:35:17;;;;;;;1.50;1.50;;;;;;;;;;4940942;29;20219;-61
2022/06/05 08:41:38;;;;;;;1.63;1.63;;;;;;;;;;4902685;29;20259;-59
2022/06/05 08:44:39;;;;;;;1.33;1.33;;;;;;;;;;4908639;29;20212;-58
2022/06/05 08:47:29;;;;;;;1.80;1.70;;;;;;;;;;4943524;28;20204;-59
2022/06/05 08:50:27;;;;;;;1.58;1.48;;;;;;;;;;4943707;28;20210;-58
2022/06/05 08:53:21;;;;;;;1.40;1.40;;;;;;;;;;4941798;28;20211;-60
2022/06/05 08:56:12;;;;;;;1.48;1.48;;;;;;;;;;4946878;28;20211;-60
2022/06/05 08:59:03;;;;;;;1.85;1.75;;;;;;;;;;4942438;29;20242;-59
2022/06/05 09:01:58;;;;;;;2.13;1.90;;;;;;;;;;4942948;28;20235;-59
2022/06/05 09:04:52;;;;;;;1.50;1.50;;;;;;;;;;4945580;28;20216;-60
2022/06/05 09:07:45;;;;;;;1.40;1.40;;;;;;;;;;4941338;29;20214;-60
2022/06/05 09:10:36;;;;;;;1.58;1.55;;;;;;;;;;4944882;28;20204;-62
2022/06/05 09:13:29;;;;;;;1.90;1.80;;;;;;;;;;4940049;28;20242;-59
2022/06/05 09:16:20;;;;;;;1.73;1.63;;;;;;;;;;4943927;28;20211;-59
2022/06/05 09:19:09;;;;;;;1.90;1.80;;;;;;;;;;4943420;28;20242;-61
2022/06/05 09:22:03;;;;;;;1.70;1.60;;;;;;;;;;4939125;28;20231;-60
2022/06/05 09:25:19;;;;;;;1.60;1.60;;;;;;;;;;4942313;29;20271;-61
2022/06/05 09:28:20;;;;;;;1.63;1.63;;;;;;;;;;4945002;29;20216;-60
2022/06/05 09:31:37;;;;;;;1.65;1.65;;;;;;;;;;4943518;29;20211;-61
2022/06/05 09:34:30;;;;;;;1.95;1.85;;;;;;;;;;4940988;28;20565;-61
2022/06/05 09:37:24;;;;;;;1.85;1.73;;;;;;;;;;4943107;28;20302;-60
2022/06/05 09:40:17;;;;;;;1.88;1.77;;;;;;;;;;4940885;29;20239;-61
2022/06/05 09:43:35;;;;;;;1.60;1.58;;;;;;;;;;4945600;28;20204;-61
2022/06/05 09:46:34;;;;;;;2.00;1.90;;;;;;;;;;4941064;29;20215;-61
2022/06/05 09:49:26;;;;;;;1.90;1.80;;;;;;;;;;4945956;29;20207;-61
2022/06/05 09:52:17;;;;;;;1.80;1.80;;;;;;;;;;4949266;28;20215;-61
2022/06/05 09:55:12;;;;;;;2.00;1.90;;;;;;;;;;4941959;28;20216;-62
2022/06/05 09:58:24;;;;;;;1.67;1.67;;;;;;;;;;4946063;28;20212;-65
2022/06/05 10:01:25;;;;;;;2.00;1.90;;;;;;;;;;4943573;28;20594;-61
2022/06/05 10:04:12;;;;;;;1.70;1.60;;;;;;;;;;4948099;28;20200;-61
2022/06/05 10:07:06;;;;;;;1.63;1.63;;;;;;;;;;4941859;28;20221;-61
2022/06/05 10:09:55;;;;;;;2.13;2.03;;;;;;;;;;4942495;29;20291;-61
2022/06/05 10:12:49;;;;;;;1.98;1.88;;;;;;;;;;4942117;29;20238;-60
2022/06/05 10:15:42;;;;;;;1.90;1.80;;;;;;;;;;4940100;29;20667;-60
2022/06/05 10:18:37;;;;;;;2.08;1.98;;;;;;;;;;4940529;29;20241;-61
2022/06/05 10:21:34;;;;;;;2.20;2.10;;;;;;;;;;4942107;28;20342;-61
2022/06/05 10:24:30;;;;;;;2.08;2.00;;;;;;;;;;4940049;29;20225;-61
2022/06/05 10:27:20;;;;;;;2.10;2.00;;;;;;;;;;4946643;28;20735;-61
2022/06/05 10:30:09;;;;;;;2.17;2.08;;;;;;;;;;4943582;28;20209;-61
2022/06/05 10:33:02;;;;;;;1.98;1.90;;;;;;;;;;4941999;28;20214;-60
2022/06/05 10:35:54;;;;;;;1.95;1.85;;;;;;;;;;4939170;28;20672;-61
2022/06/05 10:38:47;;;;;;;2.05;1.95;;;;;;;;;;4944032;28;20330;-61
2022/06/05 10:41:39;;;;;;;1.90;1.80;;;;;;;;;;4939751;29;20216;-61
2022/06/05 10:44:34;;;;;;;2.20;2.10;;;;;;;;;;4938069;29;20578;-61
2022/06/05 10:47:33;;;;;;;2.33;2.22;;;;;;;;;;4939657;29;20217;-61
2022/06/05 10:50:25;;;;;;;1.98;1.88;;;;;;;;;;4935092;28;20228;-61
2022/06/05 10:53:18;;;;;;;2.05;1.95;;;;;;;;;;4938963;29;20228;-62
2022/06/05 10:56:17;;;;;;;2.00;1.90;;;;;;;;;;4935897;28;20665;-61
2022/06/05 10:59:13;;;;;;;2.00;1.90;;;;;;;;;;4940379;28;20679;-60
2022/06/05 11:02:25;;;;;;;2.13;2.03;;;;;;;;;;4943265;29;20238;-61
2022/06/05 11:05:51;;;;;;;2.20;2.10;;;;;;;;;;4938233;29;20209;-60
2022/06/05 11:08:50;;;;;;;1.80;1.70;;;;;;;;;;4939701;29;20776;-60
2022/06/05 11:14:55;;;;;;;1.60;1.50;;;;;;;;;;4938236;28;20206;-61
2022/06/05 11:17:52;;;;;;;1.98;1.88;;;;;;;;;;4942448;29;20573;-61
2022/06/05 11:20:42;;;;;;;2.28;2.17;;;;;;;;;;4943631;29;20232;-62
2022/06/05 11:23:35;;;;;;;1.83;1.73;;;;;;;;;;4946918;28;20214;-61
2022/06/05 11:26:33;;;;;;;2.20;2.10;;;;;;;;;;4942573;28;20223;-61
2022/06/05 11:29:27;;;;;;;1.92;1.83;;;;;;;;;;4946145;29;20211;-61
2022/06/05 11:32:39;;;;;;;2.28;2.17;;;;;;;;;;4942387;28;20632;-61
2022/06/05 11:35:36;;;;;;;2.15;2.05;;;;;;;;;;4939622;29;20209;-61
2022/06/05 11:38:34;;;;;;;2.05;1.95;;;;;;;;;;4941164;28;20218;-61
2022/06/05 11:41:27;;;;;;;2.30;2.20;;;;;;;;;;4940446;29;20232;-62
2022/06/05 11:44:25;;;;;;;2.30;2.20;;;;;;;;;;4942344;29;20673;-61
2022/06/05 11:47:33;;;;;;;2.30;2.20;;;;;;;;;;4946449;28;20207;-62
2022/06/05 11:50:28;;;;;;;2.15;2.05;;;;;;;;;;4947423;28;20219;-61
2022/06/05 11:53:23;;;;;;;2.20;2.00;;;;;;;;;;4946624;29;20210;-61
2022/06/05 11:56:25;;;;;;;2.20;2.10;;;;;;;;;;4943882;28;20232;-62
2022/06/05 11:59:25;;;;;;;2.17;2.08;;;;;;;;;;4944332;29;20206;-62
2022/06/05 12:02:30;;;;;;;2.03;2.00;;;;;;;;;;4946223;28;20723;-61
2022/06/05 12:05:21;;;;;;;2.50;2.30;;;;;;;;;;4942137;29;20207;-62
2022/06/05 12:08:13;;;;;;;2.38;2.28;;;;;;;;;;4943411;28;20200;-60
2022/06/05 12:11:04;;;;;;;2.28;2.17;;;;;;;;;;4942641;28;20219;-61
2022/06/05 12:14:13;;;;;;;2.47;2.38;;;;;;;;;;4903428;29;20576;-62
2022/06/05 12:17:11;;;;;;;2.50;2.30;;;;;;;;;;4900805;29;20220;-62
2022/06/05 12:20:04;;;;;;;3.05;2.83;;;;;;;;;;4911035;29;20238;-61
2022/06/05 12:22:58;;;;;;;3.17;2.97;;;;;;;;;;4903824;29;20222;-62
2022/06/05 12:25:53;;;;;;;3.83;3.53;;;;;;;;;;4906454;29;20234;-61
2022/06/05 12:28:47;;;;;;;4.03;3.60;;;;;;;;;;4908163;29;20212;-61
2022/06/05 12:31:39;;;;;;;4.07;3.72;;;;;;;;;;4907727;29;20229;-62
2022/06/05 12:34:29;;;;;;;4.50;4.03;;;;;;;;;;4907562;29;20201;-61
2022/06/05 12:37:21;;;;;;;4.25;3.60;;;;;;;;;;4912825;29;20216;-62
2022/06/05 12:40:18;;;;;;;4.03;3.72;;;;;;;;;;4905613;29;20227;-60
2022/06/05 12:43:11;;;;;;;3.75;3.47;;;;;;;;;;4905086;29;20217;-62
2022/06/05 12:46:12;;;;;;;4.30;4.00;;;;;;;;;;4904598;29;20208;-61
2022/06/05 12:49:23;;;;;;;5.53;4.22;;;;;;;;;;4904092;29;20200;-61
2022/06/05 12:52:25;;;;;;;4.22;3.90;;;;;;;;;;4901732;29;20737;-61
2022/06/05 12:55:17;;;;;;;4.95;4.50;;;;;;;;;;4904216;29;20216;-61
2022/06/05 12:58:11;;;;;;;6.78;4.70;;;;;;;;;;4904000;29;20213;-61
2022/06/05 13:01:06;;;;;;;4.70;4.30;;;;;;;;;;4905852;29;20266;-61
2022/06/05 13:04:00;;;;;;;4.35;3.95;;;;;;;;;;4906427;29;20682;-62
2022/06/05 13:06:59;;;;;;;5.45;4.40;;;;;;;;;;4907037;29;20300;-62
2022/06/05 13:09:49;;;;;;;4.95;4.10;;;;;;;;;;4899185;29;20209;-61
2022/06/05 13:12:41;;;;;;;4.63;4.10;;;;;;;;;;4921201;29;20232;-61
2022/06/05 13:15:31;;;;;;;4.80;4.10;;;;;;;;;;4944639;28;20216;-61
2022/06/05 13:18:25;;;;;;;5.03;4.50;;;;;;;;;;4943827;28;20215;-61
2022/06/05 13:21:18;;;;;;;6.22;4.57;;;;;;;;;;4946306;28;20229;-61
2022/06/05 13:24:17;;;;;;;4.60;4.20;;;;;;;;;;4944557;29;20277;-61
2022/06/05 13:27:16;;;;;;;5.00;4.50;;;;;;;;;;4939296;28;20586;-61
2022/06/05 13:30:12;;;;;;;4.80;4.10;;;;;;;;;;4943682;28;20207;-61
2022/06/05 13:33:08;;;;;;;5.85;4.57;;;;;;;;;;4941119;28;20235;-61
2022/06/05 13:36:02;;;;;;;4.63;4.22;;;;;;;;;;4941607;29;20237;-61
2022/06/05 13:38:55;;;;;;;4.47;4.15;;;;;;;;;;4936278;28;20211;-61
2022/06/05 13:41:49;;;;;;;4.10;3.75;;;;;;;;;;4941616;29;20729;-61
2022/06/05 13:44:37;;;;;;;4.45;3.97;;;;;;;;;;4949456;28;20207;-61
2022/06/05 13:47:43;;;;;;;4.30;4.00;;;;;;;;;;4939105;29;20258;-61
2022/06/05 13:50:46;;;;;;;4.32;4.00;;;;;;;;;;4938921;28;20199;-61
2022/06/05 13:53:38;;;;;;;4.53;4.10;;;;;;;;;;4944264;29;20211;-61
2022/06/05 13:56:32;;;;;;;4.20;3.90;;;;;;;;;;4939420;28;20235;-61
2022/06/05 13:59:24;;;;;;;3.72;3.53;;;;;;;;;;4940565;28;20223;-61
2022/06/05 14:02:30;;;;;;;4.60;4.20;;;;;;;;;;4944280;28;20233;-61
2022/06/05 14:05:22;;;;;;;4.35;3.72;;;;;;;;;;4941751;29;20217;-61
2022/06/05 14:08:14;;;;;;;3.70;3.40;;;;;;;;;;4937723;29;20209;-61
2022/06/05 14:11:05;;;;;;;4.00;3.70;;;;;;;;;;4942431;29;20684;-61
2022/06/05 14:13:54;;;;;;;4.60;3.42;;;;;;;;;;4945840;28;20273;-61
2022/06/05 14:16:45;;;;;;;3.67;3.35;;;;;;;;;;4940245;29;21012;-60
2022/06/05 14:19:37;;;;;;;3.45;3.15;;;;;;;;;;4941068;29;20207;-62
2022/06/05 14:22:26;;;;;;;4.20;3.50;;;;;;;;;;4938222;29;20247;-61
2022/06/05 14:25:22;;;;;;;3.55;3.30;;;;;;;;;;4943856;28;20207;-61
2022/06/05 14:28:13;;;;;;;3.80;3.50;;;;;;;;;;4935396;28;20212;-61
2022/06/05 14:31:03;;;;;;;3.25;3.05;;;;;;;;;;4941644;29;20214;-61
2022/06/05 14:33:55;;;;;;;4.07;3.53;;;;;;;;;;4947278;28;20222;-61
2022/06/05 14:36:45;;;;;;;3.72;3.40;;;;;;;;;;4945220;29;20691;-61
2022/06/05 14:39:35;;;;;;;3.10;2.90;;;;;;;;;;4947907;28;20302;-61
2022/06/05 14:42:30;;;;;;;3.20;3.00;;;;;;;;;;4945942;28;20230;-61
2022/06/05 14:45:21;;;;;;;3.40;3.10;;;;;;;;;;4948026;29;20296;-61
2022/06/05 14:48:15;;;;;;;3.25;3.03;;;;;;;;;;4947837;29;20915;-61
2022/06/05 14:51:11;;;;;;;3.40;3.20;;;;;;;;;;4946754;28;20227;-61
2022/06/05 14:54:08;;;;;;;3.33;3.13;;;;;;;;;;4939469;28;20237;-61
2022/06/05 15:00:13;;;;;;;3.03;2.83;;;;;;;;;;4947924;28;20626;-61
2022/06/05 15:03:12;;;;;;;2.90;2.70;;;;;;;;;;4945042;28;20561;-61
2022/06/05 15:06:01;;;;;;;2.83;2.63;;;;;;;;;;4946407;28;20707;-61
2022/06/05 15:08:51;;;;;;;2.97;2.78;;;;;;;;;;4944233;29;20293;-61
2022/06/05 15:11:43;;;;;;;2.83;2.63;;;;;;;;;;4943000;29;20207;-61
2022/06/05 15:14:40;;;;;;;3.47;3.28;;;;;;;;;;4941573;29;20211;-60
2022/06/05 15:17:33;;;;;;;2.67;2.58;;;;;;;;;;4946781;28;20219;-61
2022/06/05 15:20:23;;;;;;;2.53;2.42;;;;;;;;;;4940383;28;20338;-61
2022/06/05 15:23:24;;;;;;;2.70;2.50;;;;;;;;;;4948397;28;20222;-61
2022/06/05 15:26:24;;;;;;;2.53;2.38;;;;;;;;;;4941455;29;20226;-62
2022/06/05 15:29:22;;;;;;;2.60;2.42;;;;;;;;;;4943893;29;20199;-61
2022/06/05 15:32:16;;;;;;;2.83;2.60;;;;;;;;;;4946471;29;20213;-61
2022/06/05 15:35:16;;;;;;;2.90;2.70;;;;;;;;;;4940695;28;20218;-61
2022/06/05 15:38:20;;;;;;;2.25;2.15;;;;;;;;;;4947194;28;20225;-61
2022/06/05 15:41:19;;;;;;;2.70;2.60;;;;;;;;;;4941166;29;20233;-62
2022/06/05 15:44:17;;;;;;;2.45;2.25;;;;;;;;;;4947167;28;20216;-61
2022/06/05 15:47:27;;;;;;;2.40;2.30;;;;;;;;;;4941298;28;20616;-61
2022/06/05 15:50:25;;;;;;;2.47;2.37;;;;;;;;;;4946647;28;20210;-61
2022/06/05 15:53:59;;;;;;;2.27;2.17;;;;;;;;;;4942964;28;20660;-61
2022/06/05 15:57:04;;;;;;;2.40;2.25;;;;;;;;;;4892345;29;20211;-61
2022/06/05 16:00:02;;;;;;;2.50;2.30;;;;;;;;;;4944256;29;20217;-61
2022/06/05 16:02:53;;;;;;;2.13;2.03;;;;;;;;;;4945654;28;20327;-61
2022/06/05 16:05:43;;;;;;;2.13;2.03;;;;;;;;;;4944055;29;20206;-61
2022/06/05 16:08:42;;;;;;;2.10;2.00;;;;;;;;;;4943531;29;20196;-62
2022/06/05 16:11:36;;;;;;;2.30;2.20;;;;;;;;;;4947196;28;20213;-61
2022/06/05 16:14:38;;;;;;;1.90;1.80;;;;;;;;;;4948510;29;20562;-60
2022/06/05 16:17:43;;;;;;;2.30;2.10;;;;;;;;;;4946178;29;20221;-61
2022/06/05 16:20:42;;;;;;;2.17;1.87;;;;;;;;;;4947812;29;20214;-60
2022/06/05 16:23:52;;;;;;;1.97;1.87;;;;;;;;;;4945162;29;20212;-62
2022/06/05 16:26:47;;;;;;;2.00;1.90;;;;;;;;;;4944707;28;20219;-61
2022/06/05 16:29:41;;;;;;;1.80;1.70;;;;;;;;;;4948552;29;20211;-61
2022/06/05 16:32:45;;;;;;;1.90;1.80;;;;;;;;;;4944305;29;20200;-61
2022/06/05 16:38:57;;;;;;;1.87;1.77;;;;;;;;;;4942175;29;20216;-61
2022/06/05 16:41:46;;;;;;;1.90;1.80;;;;;;;;;;4943354;29;20684;-61
2022/06/05 16:44:40;;;;;;;1.90;1.80;;;;;;;;;;4945894;29;20205;-61
2022/06/05 16:47:44;;;;;;;1.90;1.80;;;;;;;;;;4945473;28;20209;-61
2022/06/05 16:50:35;;;;;;;1.90;1.80;;;;;;;;;;4941213;28;20211;-62
2022/06/05 16:53:36;;;;;;;1.47;1.47;;;;;;;;;;4938693;28;20220;-61
2022/06/05 16:56:23;;;;;;;1.47;1.47;;;;;;;;;;4941917;29;20212;-62
2022/06/05 16:59:27;;;;;;;1.80;1.70;;;;;;;;;;4943835;28;20203;-62
2022/06/05 17:02:18;;;;;;;1.50;1.47;;;;;;;;;;4939709;28;20248;-62
2022/06/05 17:05:22;;;;;;;1.43;1.40;;;;;;;;;;4939625;28;20209;-62
2022/06/05 17:08:11;;;;;;;1.87;1.77;;;;;;;;;;4938912;29;20209;-61
2022/06/05 17:11:26;;;;;;;1.40;1.30;;;;;;;;;;4939111;28;20227;-61
2022/06/05 17:14:31;;;;;;;1.53;1.43;;;;;;;;;;4942111;28;20213;-61
2022/06/05 17:17:22;;;;;;;1.50;1.50;;;;;;;;;;4940698;28;20209;-61
2022/06/05 17:20:14;;;;;;;1.77;1.70;;;;;;;;;;4945575;28;20219;-71
2022/06/05 17:23:03;;;;;;;1.50;1.50;;;;;;;;;;4942937;28;20235;-61
2022/06/05 17:26:01;;;;;;;1.20;1.20;;;;;;;;;;4940442;28;20218;-61
2022/06/05 17:29:02;;;;;;;1.40;1.40;;;;;;;;;;4940906;28;20223;-61
2022/06/05 17:32:00;;;;;;;1.30;1.20;;;;;;;;;;4942382;29;20214;-61
2022/06/05 17:34:59;;;;;;;1.20;1.20;;;;;;;;;;4942497;29;20223;-61
2022/06/05 17:38:07;;;;;;;1.50;1.50;;;;;;;;;;4939600;29;20220;-61
2022/06/05 17:41:02;;;;;;;1.30;1.30;;;;;;;;;;4940748;29;20224;-61